sensor_id;sensor_type;location;lat;lon;timestamp;pressure;altitude;pressure_sealevel;temperature;humidity
18790;BME280;9523;42.650;23.386;2023-04-05T00:02:16;94136.38;;;-0.35;100.00
18790;BME280;9523;42.650;23.386;2023-04-05T00:04:44;94102.97;;;-0.49;100.00
18790;BME280;9523;42.650;23.386;2023-04-05T00:07:16;94121.13;;;-0.32;100.00
18790;BME280;9523;42.650;23.386;2023-04-05T00:09:46;94130.13;;;-0.23;100.00
18790;BME280;9523;42.650;23.386;2023-04-05T00:12:13;94145.47;;;-0.21;100.00
18790;BME280;9523;42.650;23.386;2023-04-05T00:14:41;94122.50;;;-0.29;100.00
18790;BME280;9523;42.650;23.386;2023-04-05T00:17:08;94127.03;;;-0.36;100.00
18790;BME280;9523;42.650;23.386;2023-04-05T00:19:35;94121.59;;;-0.35;100.00
18790;BME280;9523;42.650;23.386;2023-04-05T00:22:04;94110.56;;;-0.30;100.00
18790;BME280;9523;42.650;23.386;2023-04-05T00:24:30;94116.06;;;-0.27;100.00
18790;BME280;9523;42.650;23.386;2023-04-05T00:26:58;94132.22;;;-0.36;100.00
18790;BME280;9523;42.650;23.386;2023-04-05T00:29:26;94117.53;;;-0.31;100.00
18790;BME280;9523;42.650;23.386;2023-04-05T00:31:55;94130.38;;;-0.24;100.00
18790;BME280;9523;42.650;23.386;2023-04-05T00:34:22;94140.06;;;-0.31;100.00
18790;BME280;9523;42.650;23.386;2023-04-05T00:36:49;94148.41;;;-0.29;100.00
18790;BME280;9523;42.650;23.386;2023-04-05T00:39:18;94127.69;;;-0.29;100.00
18790;BME280;9523;42.650;23.386;2023-04-05T00:41:45;94134.50;;;-0.23;100.00
18790;BME280;9523;42.650;23.386;2023-04-05T00:44:11;94136.28;;;-0.12;100.00
18790;BME280;9523;42.650;23.386;2023-04-05T00:46:38;94136.28;;;-0.12;100.00
18790;BME280;9523;42.650;23.386;2023-04-05T00:49:08;94131.81;;;-0.17;100.00
18790;BME280;9523;42.650;23.386;2023-04-05T00:51:35;94129.91;;;-0.21;100.00
18790;BME280;9523;42.650;23.386;2023-04-05T00:54:03;94136.28;;;-0.12;100.00
18790;BME280;9523;42.650;23.386;2023-04-05T00:56:31;94135.34;;;-0.06;100.00
18790;BME280;9523;42.650;23.386;2023-04-05T00:58:58;94138.88;;;-0.12;100.00
18790;BME280;9523;42.650;23.386;2023-04-05T01:01:26;94145.09;;;-0.13;100.00
18790;BME280;9523;42.650;23.386;2023-04-05T01:03:58;94141.00;;;-0.09;100.00
18790;BME280;9523;42.650;23.386;2023-04-05T01:06:44;94152.97;;;-0.08;100.00
18790;BME280;9523;42.650;23.386;2023-04-05T01:09:23;94138.72;;;-0.06;100.00
18790;BME280;9523;42.650;23.386;2023-04-05T01:11:54;94138.72;;;-0.06;100.00
18790;BME280;9523;42.650;23.386;2023-04-05T01:14:22;94151.53;;;0.01;100.00
18790;BME280;9523;42.650;23.386;2023-04-05T01:16:49;94142.97;;;-0.16;100.00
18790;BME280;9523;42.650;23.386;2023-04-05T01:19:26;94132.13;;;-0.13;100.00
18790;BME280;9523;42.650;23.386;2023-04-05T01:28:17;94159.16;;;-0.09;100.00
18790;BME280;9523;42.650;23.386;2023-04-05T01:30:53;94138.22;;;-0.19;100.00
18790;BME280;9523;42.650;23.386;2023-04-05T01:33:25;94151.75;;;-0.17;100.00
18790;BME280;9523;42.650;23.386;2023-04-05T01:36:01;94157.09;;;-0.07;100.00
18790;BME280;9523;42.650;23.386;2023-04-05T01:38:31;94110.59;;;-0.42;100.00
18790;BME280;9523;42.650;23.386;2023-04-05T01:40:59;94126.09;;;-0.30;100.00
18790;BME280;9523;42.650;23.386;2023-04-05T01:43:26;94136.03;;;-0.11;100.00
18790;BME280;9523;42.650;23.386;2023-04-05T01:45:54;94129.44;;;-0.18;100.00
18790;BME280;9523;42.650;23.386;2023-04-05T01:48:21;94145.72;;;-0.06;100.00
18790;BME280;9523;42.650;23.386;2023-04-05T01:50:48;94147.19;;;-0.10;100.00
18790;BME280;9523;42.650;23.386;2023-04-05T01:53:15;94152.22;;;-0.04;100.00
18790;BME280;9523;42.650;23.386;2023-04-05T01:55:41;94135.94;;;-0.16;100.00
18790;BME280;9523;42.650;23.386;2023-04-05T01:58:08;94123.13;;;-0.22;100.00
18790;BME280;9523;42.650;23.386;2023-04-05T02:00:35;94157.25;;;-0.14;100.00
18790;BME280;9523;42.650;23.386;2023-04-05T02:03:03;94145.63;;;-0.11;100.00
18790;BME280;9523;42.650;23.386;2023-04-05T02:05:30;94156.00;;;-0.11;100.00
18790;BME280;9523;42.650;23.386;2023-04-05T02:07:57;94147.78;;;-0.08;100.00
18790;BME280;9523;42.650;23.386;2023-04-05T02:10:24;94161.44;;;-0.13;100.00
18790;BME280;9523;42.650;23.386;2023-04-05T02:12:52;94147.69;;;-0.13;100.00
18790;BME280;9523;42.650;23.386;2023-04-05T02:15:19;94144.06;;;-0.12;100.00
18790;BME280;9523;42.650;23.386;2023-04-05T02:17:45;94150.81;;;-0.11;100.00
18790;BME280;9523;42.650;23.386;2023-04-05T02:20:13;94168.59;;;-0.03;100.00
18790;BME280;9523;42.650;23.386;2023-04-05T02:22:41;94154.28;;;-0.06;100.00
18790;BME280;9523;42.650;23.386;2023-04-05T02:25:09;94148.41;;;-0.01;100.00
18790;BME280;9523;42.650;23.386;2023-04-05T02:27:37;94146.59;;;-0.01;100.00
18790;BME280;9523;42.650;23.386;2023-04-05T02:30:05;94148.31;;;-0.06;100.00
18790;BME280;9523;42.650;23.386;2023-04-05T02:32:32;94133.06;;;-0.03;100.00
18790;BME280;9523;42.650;23.386;2023-04-05T02:34:59;94153.03;;;-0.03;100.00
18790;BME280;9523;42.650;23.386;2023-04-05T02:37:27;94130.06;;;-0.11;100.00
18790;BME280;9523;42.650;23.386;2023-04-05T02:39:54;94146.44;;;0.06;100.00
18790;BME280;9523;42.650;23.386;2023-04-05T02:42:21;94148.56;;;0.09;100.00
18790;BME280;9523;42.650;23.386;2023-04-05T02:44:47;94129.63;;;-0.08;100.00
18790;BME280;9523;42.650;23.386;2023-04-05T02:47:14;94144.22;;;-0.02;100.00
18790;BME280;9523;42.650;23.386;2023-04-05T02:49:46;94149.41;;;-0.02;100.00
18790;BME280;9523;42.650;23.386;2023-04-05T02:52:12;94139.28;;;0.13;100.00
18790;BME280;9523;42.650;23.386;2023-04-05T02:54:41;94137.19;;;0.10;100.00
18790;BME280;9523;42.650;23.386;2023-04-05T02:57:08;94150.53;;;0.02;100.00
18790;BME280;9523;42.650;23.386;2023-04-05T02:59:36;94145.81;;;-0.01;100.00
18790;BME280;9523;42.650;23.386;2023-04-05T03:02:03;94148.03;;;0.07;100.00
18790;BME280;9523;42.650;23.386;2023-04-05T03:04:30;94151.31;;;0.03;100.00
18790;BME280;9523;42.650;23.386;2023-04-05T03:06:59;94135.91;;;-0.04;100.00
18790;BME280;9523;42.650;23.386;2023-04-05T03:09:27;94152.47;;;-0.05;100.00
18790;BME280;9523;42.650;23.386;2023-04-05T03:11:59;94146.91;;;0.03;100.00
18790;BME280;9523;42.650;23.386;2023-04-05T03:14:27;94139.63;;;0.00;100.00
18790;BME280;9523;42.650;23.386;2023-04-05T03:16:54;94145.50;;;0.12;100.00
18790;BME280;9523;42.650;23.386;2023-04-05T03:19:22;94166.41;;;0.06;100.00
18790;BME280;9523;42.650;23.386;2023-04-05T03:21:50;94146.28;;;-0.04;100.00
18790;BME280;9523;42.650;23.386;2023-04-05T03:24:17;94139.13;;;0.03;100.00
18790;BME280;9523;42.650;23.386;2023-04-05T03:26:46;94154.38;;;-0.01;100.00
18790;BME280;9523;42.650;23.386;2023-04-05T03:29:15;94131.50;;;-0.04;100.00
18790;BME280;9523;42.650;23.386;2023-04-05T03:31:42;94145.75;;;0.11;100.00
18790;BME280;9523;42.650;23.386;2023-04-05T03:34:09;94139.16;;;0.20;100.00
18790;BME280;9523;42.650;23.386;2023-04-05T03:36:36;94152.84;;;0.15;100.00
18790;BME280;9523;42.650;23.386;2023-04-05T03:39:07;94143.28;;;0.04;100.00
18790;BME280;9523;42.650;23.386;2023-04-05T03:41:34;94150.25;;;0.15;100.00
18790;BME280;9523;42.650;23.386;2023-04-05T03:44:01;94149.75;;;0.18;100.00
18790;BME280;9523;42.650;23.386;2023-04-05T03:46:29;94158.34;;;0.19;100.00
18790;BME280;9523;42.650;23.386;2023-04-05T03:48:56;94161.78;;;0.08;100.00
18790;BME280;9523;42.650;23.386;2023-04-05T03:51:23;94151.06;;;0.04;100.00
18790;BME280;9523;42.650;23.386;2023-04-05T03:53:51;94164.03;;;0.04;100.00
18790;BME280;9523;42.650;23.386;2023-04-05T03:56:18;94168.16;;;0.17;100.00
18790;BME280;9523;42.650;23.386;2023-04-05T03:58:45;94169.78;;;0.06;100.00
18790;BME280;9523;42.650;23.386;2023-04-05T04:01:12;94173.91;;;0.19;100.00
18790;BME280;9523;42.650;23.386;2023-04-05T04:03:40;94169.63;;;0.13;100.00
18790;BME280;9523;42.650;23.386;2023-04-05T04:06:07;94172.69;;;0.10;100.00
18790;BME280;9523;42.650;23.386;2023-04-05T04:08:34;94175.50;;;0.08;100.00
18790;BME280;9523;42.650;23.386;2023-04-05T04:11:01;94166.63;;;0.04;100.00
18790;BME280;9523;42.650;23.386;2023-04-05T04:13:27;94140.53;;;-0.34;100.00
18790;BME280;9523;42.650;23.386;2023-04-05T04:15:54;94166.75;;;-0.19;100.00
18790;BME280;9523;42.650;23.386;2023-04-05T04:18:21;94179.63;;;-0.24;100.00
18790;BME280;9523;42.650;23.386;2023-04-05T04:20:49;94173.81;;;-0.15;100.00
18790;BME280;9523;42.650;23.386;2023-04-05T04:23:16;94170.72;;;0.00;100.00
18790;BME280;9523;42.650;23.386;2023-04-05T04:25:43;94165.41;;;0.07;100.00
18790;BME280;9523;42.650;23.386;2023-04-05T04:28:11;94167.19;;;0.06;100.00
18790;BME280;9523;42.650;23.386;2023-04-05T04:30:42;94121.94;;;-0.31;100.00
18790;BME280;9523;42.650;23.386;2023-04-05T04:33:09;94172.97;;;-0.04;100.00
18790;BME280;9523;42.650;23.386;2023-04-05T04:35:36;94178.34;;;0.07;100.00
18790;BME280;9523;42.650;23.386;2023-04-05T04:38:05;94189.16;;;0.15;100.00
18790;BME280;9523;42.650;23.386;2023-04-05T04:40:34;94189.22;;;0.20;100.00
18790;BME280;9523;42.650;23.386;2023-04-05T04:43:03;94180.31;;;0.16;100.00
18790;BME280;9523;42.650;23.386;2023-04-05T04:45:31;94181.91;;;0.17;100.00
18790;BME280;9523;42.650;23.386;2023-04-05T04:47:59;94176.19;;;0.15;100.00
18790;BME280;9523;42.650;23.386;2023-04-05T04:50:30;94181.81;;;0.12;100.00
18790;BME280;9523;42.650;23.386;2023-04-05T04:52:57;94177.50;;;0.18;100.00
18790;BME280;9523;42.650;23.386;2023-04-05T04:55:27;94182.16;;;0.16;100.00
18790;BME280;9523;42.650;23.386;2023-04-05T04:57:55;94182.00;;;0.22;100.00
18790;BME280;9523;42.650;23.386;2023-04-05T05:00:22;94180.72;;;0.25;100.00
18790;BME280;9523;42.650;23.386;2023-04-05T05:02:50;94187.91;;;0.34;100.00
18790;BME280;9523;42.650;23.386;2023-04-05T05:05:18;94186.91;;;0.35;100.00
18790;BME280;9523;42.650;23.386;2023-04-05T05:07:47;94181.72;;;0.35;100.00
18790;BME280;9523;42.650;23.386;2023-04-05T05:10:14;94186.25;;;0.28;100.00
18790;BME280;9523;42.650;23.386;2023-04-05T05:12:42;94194.88;;;0.17;100.00
18790;BME280;9523;42.650;23.386;2023-04-05T05:15:10;94196.06;;;0.26;100.00
18790;BME280;9523;42.650;23.386;2023-04-05T05:17:37;94198.44;;;0.28;100.00
18790;BME280;9523;42.650;23.386;2023-04-05T05:20:05;94199.09;;;0.35;100.00
18790;BME280;9523;42.650;23.386;2023-04-05T05:22:34;94204.19;;;0.30;100.00
18790;BME280;9523;42.650;23.386;2023-04-05T05:25:01;94170.91;;;0.10;100.00
18790;BME280;9523;42.650;23.386;2023-04-05T05:27:28;94197.91;;;0.42;100.00
18790;BME280;9523;42.650;23.386;2023-04-05T05:29:56;94208.41;;;0.36;100.00
18790;BME280;9523;42.650;23.386;2023-04-05T05:32:23;94189.56;;;0.40;100.00
18790;BME280;9523;42.650;23.386;2023-04-05T05:34:50;94188.00;;;0.39;100.00
18790;BME280;9523;42.650;23.386;2023-04-05T05:37:17;94195.41;;;0.47;100.00
18790;BME280;9523;42.650;23.386;2023-04-05T05:39:43;94212.22;;;0.62;100.00
18790;BME280;9523;42.650;23.386;2023-04-05T05:42:10;94171.66;;;0.39;100.00
18790;BME280;9523;42.650;23.386;2023-04-05T05:44:37;94205.84;;;0.53;100.00
18790;BME280;9523;42.650;23.386;2023-04-05T05:47:05;94196.19;;;0.65;100.00
18790;BME280;9523;42.650;23.386;2023-04-05T05:49:32;94197.38;;;0.74;100.00
18790;BME280;9523;42.650;23.386;2023-04-05T05:51:59;94195.88;;;0.78;100.00
18790;BME280;9523;42.650;23.386;2023-04-05T05:54:26;94188.28;;;0.93;100.00
18790;BME280;9523;42.650;23.386;2023-04-05T05:56:53;94189.16;;;0.99;100.00
18790;BME280;9523;42.650;23.386;2023-04-05T05:59:20;94195.84;;;1.11;100.00
18790;BME280;9523;42.650;23.386;2023-04-05T06:01:47;94195.84;;;0.94;100.00
18790;BME280;9523;42.650;23.386;2023-04-05T06:04:17;94202.59;;;1.12;100.00
18790;BME280;9523;42.650;23.386;2023-04-05T06:06:44;94207.34;;;1.15;100.00
18790;BME280;9523;42.650;23.386;2023-04-05T06:09:12;94205.81;;;1.19;100.00
18790;BME280;9523;42.650;23.386;2023-04-05T06:11:39;94199.88;;;1.24;100.00
18790;BME280;9523;42.650;23.386;2023-04-05T06:14:06;94205.34;;;1.22;100.00
18790;BME280;9523;42.650;23.386;2023-04-05T06:16:33;94205.53;;;1.37;100.00
18790;BME280;9523;42.650;23.386;2023-04-05T06:19:00;94206.28;;;1.55;100.00
18790;BME280;9523;42.650;23.386;2023-04-05T06:21:28;94209.91;;;1.54;100.00
18790;BME280;9523;42.650;23.386;2023-04-05T06:23:55;94210.50;;;1.61;100.00
18790;BME280;9523;42.650;23.386;2023-04-05T06:26:22;94227.50;;;1.68;100.00
18790;BME280;9523;42.650;23.386;2023-04-05T06:28:52;94225.34;;;1.82;100.00
18790;BME280;9523;42.650;23.386;2023-04-05T06:31:20;94216.31;;;1.68;100.00
18790;BME280;9523;42.650;23.386;2023-04-05T06:33:51;94230.59;;;1.65;100.00
18790;BME280;9523;42.650;23.386;2023-04-05T06:36:18;94233.31;;;1.75;100.00
18790;BME280;9523;42.650;23.386;2023-04-05T06:38:46;94223.50;;;1.61;100.00
18790;BME280;9523;42.650;23.386;2023-04-05T06:41:13;94225.84;;;1.84;100.00
18790;BME280;9523;42.650;23.386;2023-04-05T06:43:40;94220.81;;;1.99;100.00
18790;BME280;9523;42.650;23.386;2023-04-05T06:46:06;94229.13;;;1.96;100.00
18790;BME280;9523;42.650;23.386;2023-04-05T06:48:35;94217.78;;;2.07;100.00
18790;BME280;9523;42.650;23.386;2023-04-05T06:51:03;94240.84;;;2.20;100.00
18790;BME280;9523;42.650;23.386;2023-04-05T06:53:30;94241.00;;;2.35;100.00
18790;BME280;9523;42.650;23.386;2023-04-05T06:55:58;94238.38;;;2.35;100.00
18790;BME280;9523;42.650;23.386;2023-04-05T06:58:25;94245.81;;;2.49;100.00
18790;BME280;9523;42.650;23.386;2023-04-05T07:00:53;94243.84;;;2.34;100.00
18790;BME280;9523;42.650;23.386;2023-04-05T07:03:20;94245.81;;;2.00;100.00
18790;BME280;9523;42.650;23.386;2023-04-05T07:05:50;94241.28;;;2.12;100.00
18790;BME280;9523;42.650;23.386;2023-04-05T07:08:18;94254.78;;;2.09;100.00
18790;BME280;9523;42.650;23.386;2023-04-05T07:10:45;94261.88;;;2.41;100.00
18790;BME280;9523;42.650;23.386;2023-04-05T07:13:14;94266.94;;;2.52;100.00
18790;BME280;9523;42.650;23.386;2023-04-05T07:15:41;94258.94;;;2.59;100.00
18790;BME280;9523;42.650;23.386;2023-04-05T07:18:08;94267.78;;;2.58;100.00
18790;BME280;9523;42.650;23.386;2023-04-05T07:20:35;94266.44;;;2.28;100.00
18790;BME280;9523;42.650;23.386;2023-04-05T07:23:02;94274.16;;;2.45;100.00
18790;BME280;9523;42.650;23.386;2023-04-05T07:25:30;94268.88;;;2.62;100.00
18790;BME280;9523;42.650;23.386;2023-04-05T07:27:57;94276.69;;;2.67;100.00
18790;BME280;9523;42.650;23.386;2023-04-05T07:30:26;94244.19;;;2.43;100.00
18790;BME280;9523;42.650;23.386;2023-04-05T07:32:53;94271.91;;;2.54;100.00
18790;BME280;9523;42.650;23.386;2023-04-05T07:35:20;94272.78;;;2.64;100.00
18790;BME280;9523;42.650;23.386;2023-04-05T07:37:47;94278.09;;;2.48;100.00
18790;BME280;9523;42.650;23.386;2023-04-05T07:40:14;94280.94;;;2.46;100.00
18790;BME280;9523;42.650;23.386;2023-04-05T07:42:40;94293.41;;;2.44;100.00
18790;BME280;9523;42.650;23.386;2023-04-05T07:45:08;94285.81;;;2.38;100.00
18790;BME280;9523;42.650;23.386;2023-04-05T07:47:37;94290.94;;;2.32;100.00
18790;BME280;9523;42.650;23.386;2023-04-05T07:50:04;94290.94;;;2.32;100.00
18790;BME280;9523;42.650;23.386;2023-04-05T07:52:34;94286.75;;;2.31;100.00
18790;BME280;9523;42.650;23.386;2023-04-05T07:55:00;94299.44;;;2.23;100.00
18790;BME280;9523;42.650;23.386;2023-04-05T07:57:27;94300.97;;;2.19;100.00
18790;BME280;9523;42.650;23.386;2023-04-05T07:59:55;94296.13;;;2.06;100.00
18790;BME280;9523;42.650;23.386;2023-04-05T08:02:21;94301.91;;;2.13;100.00
18790;BME280;9523;42.650;23.386;2023-04-05T08:04:50;94301.50;;;2.21;100.00
18790;BME280;9523;42.650;23.386;2023-04-05T08:07:16;94279.53;;;2.12;100.00
18790;BME280;9523;42.650;23.386;2023-04-05T08:09:43;94315.81;;;2.45;100.00
18790;BME280;9523;42.650;23.386;2023-04-05T08:12:11;94309.03;;;2.44;100.00
18790;BME280;9523;42.650;23.386;2023-04-05T08:14:37;94306.63;;;2.16;100.00
18790;BME280;9523;42.650;23.386;2023-04-05T08:17:04;94293.19;;;2.24;100.00
18790;BME280;9523;42.650;23.386;2023-04-05T08:19:31;94295.19;;;2.39;100.00
18790;BME280;9523;42.650;23.386;2023-04-05T08:21:59;94318.38;;;2.18;99.44
18790;BME280;9523;42.650;23.386;2023-04-05T08:24:26;94335.31;;;2.21;98.62
18790;BME280;9523;42.650;23.386;2023-04-05T08:26:53;94317.16;;;2.04;97.55
18790;BME280;9523;42.650;23.386;2023-04-05T08:29:20;94314.84;;;2.08;97.88
18790;BME280;9523;42.650;23.386;2023-04-05T08:31:47;94312.94;;;2.20;99.29
18790;BME280;9523;42.650;23.386;2023-04-05T08:34:14;94322.63;;;2.24;100.00
18790;BME280;9523;42.650;23.386;2023-04-05T08:36:40;94316.88;;;2.22;100.00
18790;BME280;9523;42.650;23.386;2023-04-05T08:39:09;94337.31;;;2.35;100.00
18790;BME280;9523;42.650;23.386;2023-04-05T08:41:40;94315.28;;;2.21;99.37
18790;BME280;9523;42.650;23.386;2023-04-05T08:44:08;94318.25;;;2.30;99.39
18790;BME280;9523;42.650;23.386;2023-04-05T08:46:36;94327.31;;;2.49;100.00
18790;BME280;9523;42.650;23.386;2023-04-05T08:49:04;94329.13;;;2.70;100.00
18790;BME280;9523;42.650;23.386;2023-04-05T08:51:31;94343.47;;;2.73;100.00
18790;BME280;9523;42.650;23.386;2023-04-05T08:53:59;94343.47;;;2.73;100.00
18790;BME280;9523;42.650;23.386;2023-04-05T08:56:30;94345.47;;;2.93;100.00
18790;BME280;9523;42.650;23.386;2023-04-05T08:59:01;94355.91;;;2.66;99.01
18790;BME280;9523;42.650;23.386;2023-04-05T09:01:29;94346.28;;;2.71;97.88
18790;BME280;9523;42.650;23.386;2023-04-05T09:03:59;94350.91;;;2.86;98.61
18790;BME280;9523;42.650;23.386;2023-04-05T09:06:27;94346.31;;;2.98;98.60
18790;BME280;9523;42.650;23.386;2023-04-05T09:08:56;94343.75;;;2.76;96.57
18790;BME280;9523;42.650;23.386;2023-04-05T09:11:23;94342.88;;;2.93;100.00
18790;BME280;9523;42.650;23.386;2023-04-05T09:13:51;94347.97;;;3.09;100.00
18790;BME280;9523;42.650;23.386;2023-04-05T09:16:19;94339.88;;;3.38;100.00
18790;BME280;9523;42.650;23.386;2023-04-05T09:18:46;94344.38;;;3.47;96.09
18790;BME280;9523;42.650;23.386;2023-04-05T09:21:13;94351.50;;;3.25;91.93
18790;BME280;9523;42.650;23.386;2023-04-05T09:23:51;94325.31;;;2.83;94.82
18790;BME280;9523;42.650;23.386;2023-04-05T09:26:22;94350.44;;;2.94;95.61
18790;BME280;9523;42.650;23.386;2023-04-05T09:28:50;94346.13;;;2.78;98.38
18790;BME280;9523;42.650;23.386;2023-04-05T09:31:32;94349.78;;;3.09;99.29
18790;BME280;9523;42.650;23.386;2023-04-05T09:34:00;94341.69;;;3.05;97.38
18790;BME280;9523;42.650;23.386;2023-04-05T09:36:28;94344.81;;;3.34;97.17
18790;BME280;9523;42.650;23.386;2023-04-05T09:39:04;94341.75;;;3.42;94.04
18790;BME280;9523;42.650;23.386;2023-04-05T09:41:32;94336.72;;;3.36;90.29
18790;BME280;9523;42.650;23.386;2023-04-05T09:43:59;94341.56;;;3.54;88.35
18790;BME280;9523;42.650;23.386;2023-04-05T09:46:31;94338.03;;;3.70;86.49
18790;BME280;9523;42.650;23.386;2023-04-05T09:48:59;94317.50;;;3.47;84.79
18790;BME280;9523;42.650;23.386;2023-04-05T09:51:31;94346.59;;;3.70;83.21
18790;BME280;9523;42.650;23.386;2023-04-05T09:54:01;94345.34;;;3.73;84.05
18790;BME280;9523;42.650;23.386;2023-04-05T09:56:32;94345.94;;;3.85;82.98
18790;BME280;9523;42.650;23.386;2023-04-05T09:59:00;94346.34;;;3.67;84.30
18790;BME280;9523;42.650;23.386;2023-04-05T10:01:30;94328.53;;;3.54;86.68
18790;BME280;9523;42.650;23.386;2023-04-05T10:03:58;94349.06;;;3.87;85.21
18790;BME280;9523;42.650;23.386;2023-04-05T10:06:34;94344.16;;;4.58;83.04
18790;BME280;9523;42.650;23.386;2023-04-05T10:09:02;94347.34;;;4.70;74.13
18790;BME280;9523;42.650;23.386;2023-04-05T10:11:31;94333.00;;;4.83;72.70
18790;BME280;9523;42.650;23.386;2023-04-05T10:14:00;94342.22;;;5.31;71.24
18790;BME280;9523;42.650;23.386;2023-04-05T10:16:31;94351.38;;;5.38;69.63
18790;BME280;9523;42.650;23.386;2023-04-05T10:19:04;94359.22;;;5.08;69.26
18790;BME280;9523;42.650;23.386;2023-04-05T10:21:35;94335.84;;;4.66;69.58
18790;BME280;9523;42.650;23.386;2023-04-05T10:24:13;94346.56;;;4.64;70.00
18790;BME280;9523;42.650;23.386;2023-04-05T10:26:47;94334.50;;;4.58;67.40
18790;BME280;9523;42.650;23.386;2023-04-05T10:29:24;94333.47;;;4.59;66.40
18790;BME280;9523;42.650;23.386;2023-04-05T10:31:58;94348.84;;;4.41;65.51
18790;BME280;9523;42.650;23.386;2023-04-05T10:34:32;94333.25;;;4.04;69.17
18790;BME280;9523;42.650;23.386;2023-04-05T10:37:05;94340.06;;;4.05;68.04
18790;BME280;9523;42.650;23.386;2023-04-05T10:39:34;94359.50;;;3.82;67.30
18790;BME280;9523;42.650;23.386;2023-04-05T10:42:08;94334.72;;;3.48;68.85
18790;BME280;9523;42.650;23.386;2023-04-05T10:44:38;94303.13;;;3.07;71.12
18790;BME280;9523;42.650;23.386;2023-04-05T10:47:10;94325.13;;;3.53;72.22
18790;BME280;9523;42.650;23.386;2023-04-05T10:49:41;94344.63;;;3.88;72.79
18790;BME280;9523;42.650;23.386;2023-04-05T10:52:09;94343.34;;;3.85;71.52
18790;BME280;9523;42.650;23.386;2023-04-05T10:54:36;94332.31;;;4.25;70.11
18790;BME280;9523;42.650;23.386;2023-04-05T10:57:05;94348.50;;;4.27;69.64
18790;BME280;9523;42.650;23.386;2023-04-05T10:59:33;94346.25;;;4.46;67.53
18790;BME280;9523;42.650;23.386;2023-04-05T11:02:01;94369.06;;;4.86;66.58
18790;BME280;9523;42.650;23.386;2023-04-05T11:04:32;94351.44;;;4.41;66.44
18790;BME280;9523;42.650;23.386;2023-04-05T11:07:12;94369.44;;;4.42;66.98
18790;BME280;9523;42.650;23.386;2023-04-05T11:09:49;94352.78;;;4.48;65.04
18790;BME280;9523;42.650;23.386;2023-04-05T11:12:17;94343.63;;;4.46;64.65
18790;BME280;9523;42.650;23.386;2023-04-05T11:14:44;94351.50;;;4.56;65.40
18790;BME280;9523;42.650;23.386;2023-04-05T11:17:24;94350.34;;;5.59;63.40
18790;BME280;9523;42.650;23.386;2023-04-05T11:20:01;94365.22;;;6.09;60.22
18790;BME280;9523;42.650;23.386;2023-04-05T11:22:28;94359.50;;;5.42;61.84
18790;BME280;9523;42.650;23.386;2023-04-05T11:24:57;94326.00;;;5.24;59.81
18790;BME280;9523;42.650;23.386;2023-04-05T11:27:27;94383.59;;;5.94;58.90
18790;BME280;9523;42.650;23.386;2023-04-05T11:29:55;94354.78;;;5.74;56.91
18790;BME280;9523;42.650;23.386;2023-04-05T11:32:23;94365.78;;;5.91;57.06
18790;BME280;9523;42.650;23.386;2023-04-05T11:34:59;94345.13;;;5.44;58.08
18790;BME280;9523;42.650;23.386;2023-04-05T11:37:53;94351.91;;;5.71;57.80
18790;BME280;9523;42.650;23.386;2023-04-05T11:40:27;94343.25;;;5.75;57.55
18790;BME280;9523;42.650;23.386;2023-04-05T11:43:03;94348.78;;;5.68;57.32
18790;BME280;9523;42.650;23.386;2023-04-05T11:45:33;94348.25;;;5.36;58.74
18790;BME280;9523;42.650;23.386;2023-04-05T11:48:03;94365.47;;;5.07;59.48
18790;BME280;9523;42.650;23.386;2023-04-05T11:50:31;94350.06;;;5.15;60.34
18790;BME280;9523;42.650;23.386;2023-04-05T11:53:09;94361.56;;;5.04;60.28
18790;BME280;9523;42.650;23.386;2023-04-05T11:55:36;94358.03;;;4.53;62.02
18790;BME280;9523;42.650;23.386;2023-04-05T11:58:11;94351.28;;;4.05;66.29
18790;BME280;9523;42.650;23.386;2023-04-05T12:00:38;94366.63;;;4.49;64.40
18790;BME280;9523;42.650;23.386;2023-04-05T12:03:05;94358.38;;;4.87;63.64
18790;BME280;9523;42.650;23.386;2023-04-05T12:05:45;94356.06;;;5.11;62.35
18790;BME280;9523;42.650;23.386;2023-04-05T12:08:12;94350.59;;;5.12;60.80
18790;BME280;9523;42.650;23.386;2023-04-05T12:10:39;94349.03;;;5.32;60.82
18790;BME280;9523;42.650;23.386;2023-04-05T12:13:06;94358.19;;;5.85;59.54
18790;BME280;9523;42.650;23.386;2023-04-05T12:15:36;94347.44;;;6.06;59.87
18790;BME280;9523;42.650;23.386;2023-04-05T12:18:03;94369.88;;;6.38;59.95
18790;BME280;9523;42.650;23.386;2023-04-05T12:20:32;94369.94;;;6.92;56.12
18790;BME280;9523;42.650;23.386;2023-04-05T12:23:02;94343.34;;;7.47;55.64
18790;BME280;9523;42.650;23.386;2023-04-05T12:25:30;94371.13;;;7.82;54.40
18790;BME280;9523;42.650;23.386;2023-04-05T12:28:03;94349.97;;;8.74;51.60
18790;BME280;9523;42.650;23.386;2023-04-05T12:30:31;94347.38;;;9.30;50.53
18790;BME280;9523;42.650;23.386;2023-04-05T12:33:06;94343.47;;;9.78;48.81
18790;BME280;9523;42.650;23.386;2023-04-05T12:35:34;94335.34;;;9.42;47.80
18790;BME280;9523;42.650;23.386;2023-04-05T12:38:03;94343.34;;;8.76;48.05
18790;BME280;9523;42.650;23.386;2023-04-05T12:40:31;94355.16;;;9.72;47.81
18790;BME280;9523;42.650;23.386;2023-04-05T12:43:04;94345.94;;;10.75;46.44
18790;BME280;9523;42.650;23.386;2023-04-05T12:45:31;94353.16;;;11.69;44.09
18790;BME280;9523;42.650;23.386;2023-04-05T12:48:07;94351.25;;;11.47;43.24
18790;BME280;9523;42.650;23.386;2023-04-05T12:50:41;94357.31;;;11.84;42.62
18790;BME280;9523;42.650;23.386;2023-04-05T12:53:15;94339.38;;;12.25;41.73
18790;BME280;9523;42.650;23.386;2023-04-05T12:55:47;94338.81;;;11.84;41.18
18790;BME280;9523;42.650;23.386;2023-04-05T12:58:14;94374.09;;;11.65;41.14
18790;BME280;9523;42.650;23.386;2023-04-05T13:00:42;94354.63;;;9.89;44.32
18790;BME280;9523;42.650;23.386;2023-04-05T13:03:14;94357.38;;;9.98;45.76
18790;BME280;9523;42.650;23.386;2023-04-05T13:05:41;94352.50;;;9.21;46.45
18790;BME280;9523;42.650;23.386;2023-04-05T13:08:10;94359.59;;;9.21;46.64
18790;BME280;9523;42.650;23.386;2023-04-05T13:10:36;94370.72;;;8.28;48.21
18790;BME280;9523;42.650;23.386;2023-04-05T13:13:03;94367.47;;;7.83;49.29
18790;BME280;9523;42.650;23.386;2023-04-05T13:15:30;94357.66;;;7.26;50.40